KFYM

Fayetteville Municipal Airport

Fayetteville, Tennessee, USA
METAR KFYM 190655Z AUTO 20003KT 10SM CLR M06/M10 A3031 RMK A01
Observed Flight Rules
Jan-19 @ 06:55 UTC (28 minutes ago) Visual Flight Rules
Wind Visibility Clouds
200° at 3 knots 10 miles
  • Clear skies
Temperatures Readings
Current -6°C / 21°F
Dewpoint -10°C / 14°F
Humidity 74%
Altimeter 30.31" Hg
Pressure 1026 hPa
Elevation 300
METAR KFYM 190655Z AUTO 20003KT 10SM CLR M06/M10 A3031 RMK A01
Observed Flight Rules
Jan-19 @ 06:55 UTC
(28 minutes ago)
VFR
Wind Visibility
200° at 3 knots 10 miles
Clouds
  • Clear skies
Temperature Dewpoint
-6°C / 21°F -10°C / 14°F
Humidity Altimeter Pressure
74% 30.31" Hg 1026 hPa